sensor_id;sensor_type;location;lat;lon;timestamp;pressure;altitude;pressure_sealevel;temperature;humidity
69593;BME280;56796;50.122;14.468;2024-02-21T00:15:21;986.79;;;7.18;81.14
69593;BME280;56796;50.122;14.468;2024-02-21T00:34:47;986.6;;;7.01;81.42
69593;BME280;56796;50.122;14.468;2024-02-21T00:54:16;986.47;;;6.94;81.59
69593;BME280;56796;50.122;14.468;2024-02-21T01:13:35;986.26;;;6.87;82.06
69593;BME280;56796;50.122;14.468;2024-02-21T01:33:02;986.04;;;6.74;83.07
69593;BME280;56796;50.122;14.468;2024-02-21T01:52:26;985.79;;;6.65;83.91
69593;BME280;56796;50.122;14.468;2024-02-21T02:11:51;985.61;;;6.71;83.78
69593;BME280;56796;50.122;14.468;2024-02-21T02:31:18;985.41;;;6.81;83.26
69593;BME280;56796;50.122;14.468;2024-02-21T02:50:45;985.14;;;6.81;83.4
69593;BME280;56796;50.122;14.468;2024-02-21T03:10:12;984.96;;;6.79;83.63
69593;BME280;56796;50.122;14.468;2024-02-21T03:29:38;984.92;;;6.78;83.89
69593;BME280;56796;50.122;14.468;2024-02-21T03:49:05;984.84;;;6.72;84.28
69593;BME280;56796;50.122;14.468;2024-02-21T04:08:30;984.66;;;6.55;85.18
69593;BME280;56796;50.122;14.468;2024-02-21T04:27:57;984.66;;;6.5;85.55
69593;BME280;56796;50.122;14.468;2024-02-21T04:47:24;984.35;;;6.38;86.28
69593;BME280;56796;50.122;14.468;2024-02-21T05:06:50;984.38;;;6.35;86.54
69593;BME280;56796;50.122;14.468;2024-02-21T05:26:19;984.24;;;6.38;86.43
69593;BME280;56796;50.122;14.468;2024-02-21T05:45:42;984.24;;;6.44;86.44
69593;BME280;56796;50.122;14.468;2024-02-21T06:05:08;984.16;;;6.48;86.54
69593;BME280;56796;50.122;14.468;2024-02-21T06:24:35;984.12;;;6.61;86.25
69593;BME280;56796;50.122;14.468;2024-02-21T06:44:03;984.02;;;6.75;85.72
69593;BME280;56796;50.122;14.468;2024-02-21T07:03:30;984.04;;;6.91;85.26
69593;BME280;56796;50.122;14.468;2024-02-21T07:22:59;983.71;;;7.05;84.86
69593;BME280;56796;50.122;14.468;2024-02-21T07:42:25;983.87;;;7.17;84.32
69593;BME280;56796;50.122;14.468;2024-02-21T08:01:51;983.8;;;7.26;84.33
69593;BME280;56796;50.122;14.468;2024-02-21T08:21:19;983.49;;;7.54;83.47
69593;BME280;56796;50.122;14.468;2024-02-21T08:40:48;983.44;;;7.91;82.24
69593;BME280;56796;50.122;14.468;2024-02-21T09:00:16;983.32;;;8.07;81.83
69593;BME280;56796;50.122;14.468;2024-02-21T09:19:41;983.46;;;7.72;83.97
69593;BME280;56796;50.122;14.468;2024-02-21T09:39:12;983.11;;;9.72;77.34
69593;BME280;56796;50.122;14.468;2024-02-21T09:58:50;982.69;;;13.39;66.99
69593;BME280;56796;50.122;14.468;2024-02-21T10:18:31;982.67;;;12.96;62.57
69593;BME280;56796;50.122;14.468;2024-02-21T10:38:02;982.57;;;16.31;56.26
69593;BME280;56796;50.122;14.468;2024-02-21T10:57:41;982.44;;;17.12;50.32
69593;BME280;56796;50.122;14.468;2024-02-21T11:16:54;982.56;;;12.28;61.84
69593;BME280;56796;50.122;14.468;2024-02-21T11:36:09;982.26;;;10.94;66.81
69593;BME280;56796;50.122;14.468;2024-02-21T11:55:32;981.79;;;11.49;66.66
69593;BME280;56796;50.122;14.468;2024-02-21T12:15:07;981.39;;;14.92;58.85
69593;BME280;56796;50.122;14.468;2024-02-21T12:34:28;981.28;;;12.45;62.97
69593;BME280;56796;50.122;14.468;2024-02-21T12:53:52;980.7;;;13.78;60.02
69593;BME280;56796;50.122;14.468;2024-02-21T13:13:22;980.15;;;16.43;54.12
69593;BME280;56796;50.122;14.468;2024-02-21T13:32:57;980.16;;;15.81;52.6
69593;BME280;56796;50.122;14.468;2024-02-21T13:52:22;979.89;;;14.21;56.19
69593;BME280;56796;50.122;14.468;2024-02-21T14:11:36;979.71;;;12.5;64.74
69593;BME280;56796;50.122;14.468;2024-02-21T14:31:00;979.39;;;12.1;64.61
69593;BME280;56796;50.122;14.468;2024-02-21T14:50:24;979.13;;;12.42;65.74
69593;BME280;56796;50.122;14.468;2024-02-21T15:09:53;978.82;;;13.63;60.71
69593;BME280;56796;50.122;14.468;2024-02-21T15:29:18;978.86;;;11.71;65.76
69593;BME280;56796;50.122;14.468;2024-02-21T15:48:40;978.84;;;11.25;67.11
69593;BME280;56796;50.122;14.468;2024-02-21T16:08:04;978.63;;;11.04;67.58
69593;BME280;56796;50.122;14.468;2024-02-21T16:27:30;978.41;;;10.77;68.52
69593;BME280;56796;50.122;14.468;2024-02-21T16:46:56;978.13;;;10.42;69.39
69593;BME280;56796;50.122;14.468;2024-02-21T17:06:22;978.02;;;10.39;69.34
69593;BME280;56796;50.122;14.468;2024-02-21T17:25:51;977.82;;;10.24;69.28
69593;BME280;56796;50.122;14.468;2024-02-21T17:45:16;977.63;;;10.14;68.57
69593;BME280;56796;50.122;14.468;2024-02-21T18:04:43;977.54;;;9.8;69.66
69593;BME280;56796;50.122;14.468;2024-02-21T18:24:08;977.56;;;9.6;69.7
69593;BME280;56796;50.122;14.468;2024-02-21T18:43:37;977.27;;;9.58;67.84
69593;BME280;56796;50.122;14.468;2024-02-21T19:02:55;977.09;;;9.54;65.75
69593;BME280;56796;50.122;14.468;2024-02-21T19:22:23;976.72;;;9.55;63
69593;BME280;56796;50.122;14.468;2024-02-21T19:41:50;976.39;;;9.47;62.42
69593;BME280;56796;50.122;14.468;2024-02-21T20:01:16;976.28;;;9.33;62.47
69593;BME280;56796;50.122;14.468;2024-02-21T20:20:42;976.12;;;8.59;66.24
69593;BME280;56796;50.122;14.468;2024-02-21T20:40:08;975.66;;;8.51;66.11
69593;BME280;56796;50.122;14.468;2024-02-21T20:59:34;975.38;;;8.54;65.72
69593;BME280;56796;50.122;14.468;2024-02-21T21:19:01;975.17;;;8.57;65.87
69593;BME280;56796;50.122;14.468;2024-02-21T21:38:28;974.99;;;8.52;66.95
69593;BME280;56796;50.122;14.468;2024-02-21T21:57:54;974.55;;;8.49;68.85
69593;BME280;56796;50.122;14.468;2024-02-21T22:17:21;974.47;;;8.42;69.55
69593;BME280;56796;50.122;14.468;2024-02-21T22:36:48;974.32;;;8.47;67.88
69593;BME280;56796;50.122;14.468;2024-02-21T22:56:16;974.26;;;8.51;67.2
69593;BME280;56796;50.122;14.468;2024-02-21T23:15:42;974.04;;;8.56;66.36
69593;BME280;56796;50.122;14.468;2024-02-21T23:35:09;973.73;;;8.54;66.32
69593;BME280;56796;50.122;14.468;2024-02-21T23:54:35;973.46;;;8.43;66.94
